Terminal Aerodrome Forecast
Issued by NWS

Home | Current Version | Previous Version | Text Only | Print | Product List | Glossary On
Versions: 1 2 3 4 5 6 7 8 9 10 11 12 13 14 15 16 17 18 19 20 21 22 23 24 25 26 27 28 29 30 31 32 33 34 35 36 37 38 39 40 41 42 43 44 45 46 47 48
000
FTUS43 KDMX 050540
TAFMCW
TAF
KMCW 050540Z 0506/0606 22008KT 6SM BR SCT004
     FM050900 21006KT 3SM BR SCT004
     FM051300 17010KT P6SM BKN100
     FM051600 17015G22KT P6SM OVC070
     FM060000 21011KT P6SM OVC020=

USA.gov is the U.S. government's official web portal to all federal, state and local government web resources and services.